createdAt,value
2022-10-23T00:02:26.047Z,100.00
2022-10-23T00:04:52.704Z,100.00
2022-10-23T00:07:19.458Z,100.00
2022-10-23T00:09:46.379Z,100.00
2022-10-23T00:12:12.869Z,100.00
2022-10-23T00:14:41.512Z,100.00
2022-10-23T00:17:10.045Z,100.00
2022-10-23T00:19:36.568Z,100.00
2022-10-23T00:22:03.153Z,100.00
2022-10-23T00:24:29.792Z,100.00
2022-10-23T00:26:56.373Z,100.00
2022-10-23T00:29:23.606Z,100.00
2022-10-23T00:31:50.095Z,100.00
2022-10-23T00:34:18.931Z,100.00
2022-10-23T00:36:45.871Z,100.00
2022-10-23T00:39:15.085Z,100.00
2022-10-23T00:41:42.390Z,100.00
2022-10-23T00:44:10.740Z,100.00
2022-10-23T00:46:38.529Z,100.00
2022-10-23T00:49:06.671Z,100.00
2022-10-23T00:51:38.025Z,100.00
2022-10-23T00:54:23.857Z,100.00
2022-10-23T00:56:54.807Z,100.00
2022-10-23T00:59:26.103Z,100.00
2022-10-23T01:01:54.370Z,100.00
2022-10-23T01:04:21.965Z,100.00
2022-10-23T01:06:48.623Z,100.00
2022-10-23T01:09:20.849Z,100.00
2022-10-23T01:11:55.616Z,100.00
2022-10-23T01:14:22.172Z,100.00
2022-10-23T01:16:51.693Z,100.00
2022-10-23T01:19:27.665Z,100.00
2022-10-23T01:21:58.746Z,100.00
2022-10-23T01:24:28.695Z,100.00
2022-10-23T01:26:55.226Z,100.00
2022-10-23T01:29:45.218Z,100.00
2022-10-23T01:32:19.450Z,100.00
2022-10-23T01:34:51.276Z,100.00
2022-10-23T01:37:22.853Z,100.00
2022-10-23T01:39:52.326Z,100.00
2022-10-23T01:42:21.797Z,100.00
2022-10-23T01:44:51.115Z,100.00
2022-10-23T01:49:58.204Z,100.00
2022-10-23T01:52:24.918Z,100.00
2022-10-23T01:54:54.698Z,100.00
2022-10-23T01:57:22.409Z,100.00
2022-10-23T01:59:53.049Z,100.00
2022-10-23T02:02:22.203Z,100.00
2022-10-23T02:05:07.262Z,100.00
2022-10-23T02:07:35.045Z,100.00
2022-10-23T02:10:03.294Z,100.00
2022-10-23T02:12:36.903Z,100.00
2022-10-23T02:15:03.518Z,100.00
2022-10-23T02:17:39.456Z,100.00
2022-10-23T02:20:19.562Z,100.00
2022-10-23T02:22:55.011Z,100.00
2022-10-23T02:25:27.924Z,100.00
2022-10-23T02:27:58.053Z,100.00
2022-10-23T02:30:29.481Z,100.00
2022-10-23T02:33:07.340Z,100.00
2022-10-23T02:35:35.574Z,100.00
2022-10-23T02:38:28.072Z,100.00
2022-10-23T02:40:57.592Z,100.00
2022-10-23T02:43:25.968Z,100.00
2022-10-23T02:45:52.717Z,100.00
2022-10-23T02:48:25.229Z,100.00
2022-10-23T02:50:55.039Z,100.00
2022-10-23T02:53:28.030Z,100.00
2022-10-23T02:55:54.693Z,100.00
2022-10-23T02:58:41.545Z,100.00
2022-10-23T03:01:14.387Z,100.00
2022-10-23T03:03:43.979Z,100.00
2022-10-23T03:06:10.662Z,100.00
2022-10-23T03:08:44.643Z,100.00
2022-10-23T03:11:23.909Z,100.00
2022-10-23T03:13:50.682Z,100.00
2022-10-23T03:16:17.527Z,100.00
2022-10-23T03:18:49.786Z,100.00
2022-10-23T03:21:17.418Z,100.00
2022-10-23T03:23:44.007Z,100.00
2022-10-23T03:26:14.275Z,100.00
2022-10-23T03:28:42.649Z,100.00
2022-10-23T03:31:09.520Z,100.00
2022-10-23T03:33:38.240Z,100.00
2022-10-23T03:36:11.131Z,100.00
2022-10-23T03:38:38.466Z,100.00
2022-10-23T03:41:05.319Z,100.00
2022-10-23T03:43:32.023Z,100.00
2022-10-23T03:45:58.713Z,100.00
2022-10-23T03:48:25.817Z,100.00
2022-10-23T03:50:57.357Z,100.00
2022-10-23T03:53:23.863Z,100.00
2022-10-23T03:55:50.504Z,100.00
2022-10-23T03:58:17.249Z,100.00
2022-10-23T04:03:15.419Z,100.00
2022-10-23T04:05:42.534Z,100.00
2022-10-23T04:08:09.705Z,100.00
2022-10-23T04:10:36.319Z,100.00
2022-10-23T04:13:03.052Z,100.00
2022-10-23T04:15:32.864Z,100.00
2022-10-23T04:18:01.337Z,100.00
2022-10-23T04:20:28.142Z,100.00
2022-10-23T04:22:54.820Z,100.00
2022-10-23T04:25:21.497Z,100.00
2022-10-23T04:27:48.412Z,100.00
2022-10-23T04:30:15.049Z,100.00
2022-10-23T04:32:42.257Z,100.00
2022-10-23T04:35:08.858Z,100.00
2022-10-23T04:37:35.540Z,100.00
2022-10-23T04:40:04.401Z,100.00
2022-10-23T04:42:35.182Z,100.00
2022-10-23T04:45:02.668Z,100.00
2022-10-23T04:47:30.699Z,100.00
2022-10-23T04:49:58.806Z,100.00
2022-10-23T04:52:44.555Z,100.00
2022-10-23T04:55:29.971Z,100.00
2022-10-23T04:58:12.616Z,100.00
2022-10-23T05:00:39.309Z,100.00
2022-10-23T05:03:06.274Z,100.00
2022-10-23T05:05:39.382Z,100.00
2022-10-23T05:08:35.409Z,100.00
2022-10-23T05:11:20.537Z,100.00
2022-10-23T05:13:49.018Z,100.00
2022-10-23T05:16:38.907Z,100.00
2022-10-23T05:19:07.230Z,100.00
2022-10-23T05:21:35.476Z,100.00
2022-10-23T05:24:05.062Z,100.00
2022-10-23T05:26:31.865Z,100.00
2022-10-23T05:29:03.217Z,100.00
2022-10-23T05:31:30.578Z,100.00
2022-10-23T05:34:04.782Z,100.00
2022-10-23T05:36:31.670Z,100.00
2022-10-23T05:38:58.669Z,100.00
2022-10-23T05:41:25.858Z,100.00
2022-10-23T05:43:55.821Z,100.00
2022-10-23T05:46:42.613Z,100.00
2022-10-23T05:49:25.506Z,100.00
2022-10-23T05:52:14.721Z,100.00
2022-10-23T05:55:01.556Z,100.00
2022-10-23T05:57:53.044Z,100.00
2022-10-23T06:00:30.774Z,100.00
2022-10-23T06:03:08.553Z,100.00
2022-10-23T06:05:37.420Z,100.00
2022-10-23T06:08:17.901Z,100.00
2022-10-23T06:10:44.388Z,100.00
2022-10-23T06:13:11.273Z,100.00
2022-10-23T06:15:39.049Z,100.00
2022-10-23T06:18:10.298Z,100.00
2022-10-23T06:20:43.783Z,100.00
2022-10-23T06:23:16.403Z,100.00
2022-10-23T06:26:17.339Z,100.00
2022-10-23T06:28:55.278Z,100.00
2022-10-23T06:31:26.176Z,100.00
2022-10-23T06:33:53.750Z,100.00
2022-10-23T06:36:20.690Z,100.00
2022-10-23T06:38:48.906Z,100.00
2022-10-23T06:41:17.343Z,100.00
2022-10-23T06:43:49.049Z,100.00
2022-10-23T06:46:22.018Z,100.00
2022-10-23T06:49:07.089Z,100.00
2022-10-23T06:51:41.103Z,100.00
2022-10-23T06:54:11.497Z,100.00
2022-10-23T06:56:51.041Z,100.00
2022-10-23T06:59:24.889Z,100.00
2022-10-23T07:01:52.389Z,100.00
2022-10-23T07:04:19.311Z,100.00
2022-10-23T07:06:45.978Z,100.00
2022-10-23T07:09:12.676Z,100.00
2022-10-23T07:11:54.290Z,100.00
2022-10-23T07:14:26.871Z,100.00
2022-10-23T07:16:54.686Z,100.00
2022-10-23T07:19:21.443Z,100.00
2022-10-23T07:21:54.847Z,100.00
2022-10-23T07:24:28.375Z,100.00
2022-10-23T07:26:57.950Z,100.00
2022-10-23T07:29:27.782Z,100.00
2022-10-23T07:31:54.552Z,100.00
2022-10-23T07:34:25.729Z,100.00
2022-10-23T07:37:08.185Z,100.00
2022-10-23T07:39:35.250Z,100.00
2022-10-23T07:42:02.390Z,100.00
2022-10-23T07:44:29.052Z,100.00
2022-10-23T07:46:55.707Z,100.00
2022-10-23T07:49:22.243Z,100.00
2022-10-23T07:51:51.355Z,100.00
2022-10-23T07:54:19.053Z,100.00
2022-10-23T07:56:45.671Z,100.00
2022-10-23T07:59:17.506Z,100.00
2022-10-23T08:01:56.427Z,100.00
2022-10-23T08:04:27.639Z,100.00
2022-10-23T08:07:00.461Z,100.00
2022-10-23T08:09:28.344Z,100.00
2022-10-23T08:11:56.084Z,100.00
2022-10-23T08:14:23.535Z,100.00
2022-10-23T08:16:50.269Z,100.00
2022-10-23T08:19:17.186Z,100.00
2022-10-23T08:21:44.941Z,100.00
2022-10-23T08:24:13.344Z,100.00
2022-10-23T08:26:40.728Z,100.00
2022-10-23T08:29:07.785Z,100.00
2022-10-23T08:31:34.726Z,100.00
2022-10-23T08:34:18.205Z,100.00
2022-10-23T08:36:46.023Z,100.00
2022-10-23T08:39:13.348Z,100.00
2022-10-23T08:41:48.694Z,100.00
2022-10-23T08:44:21.504Z,100.00
2022-10-23T08:46:54.072Z,100.00
2022-10-23T08:49:46.917Z,100.00
2022-10-23T08:52:26.076Z,100.00
2022-10-23T08:54:57.293Z,100.00
2022-10-23T08:57:25.873Z,100.00
2022-10-23T08:59:57.510Z,100.00
2022-10-23T09:02:27.242Z,100.00
2022-10-23T09:04:55.017Z,100.00
2022-10-23T09:07:33.533Z,100.00
2022-10-23T09:10:14.698Z,100.00
2022-10-23T09:12:41.512Z,100.00
2022-10-23T09:15:27.932Z,100.00
2022-10-23T09:17:59.859Z,100.00
2022-10-23T09:20:35.337Z,100.00
2022-10-23T09:23:22.269Z,100.00
2022-10-23T09:25:54.723Z,100.00
2022-10-23T09:28:22.634Z,100.00
2022-10-23T09:30:49.856Z,100.00
2022-10-23T09:33:18.250Z,100.00
2022-10-23T09:36:01.433Z,100.00
2022-10-23T09:38:33.964Z,100.00
2022-10-23T09:41:10.994Z,100.00
2022-10-23T09:43:38.204Z,100.00
2022-10-23T09:46:07.533Z,100.00
2022-10-23T09:48:36.110Z,100.00
2022-10-23T09:51:23.326Z,100.00
2022-10-23T09:53:59.935Z,100.00
2022-10-23T09:56:30.786Z,100.00
2022-10-23T09:59:09.034Z,100.00
2022-10-23T10:01:45.083Z,100.00
2022-10-23T10:04:36.355Z,100.00
2022-10-23T10:07:06.796Z,100.00
2022-10-23T10:09:33.930Z,100.00
2022-10-23T10:12:23.594Z,100.00
2022-10-23T10:15:12.756Z,100.00
2022-10-23T10:17:58.320Z,100.00
2022-10-23T10:20:34.095Z,100.00
2022-10-23T10:23:07.106Z,100.00
2022-10-23T10:25:33.664Z,100.00
2022-10-23T10:28:03.302Z,100.00
2022-10-23T10:30:36.571Z,100.00
2022-10-23T10:33:03.412Z,100.00
2022-10-23T10:35:39.100Z,100.00
2022-10-23T10:38:08.737Z,100.00
2022-10-23T10:40:38.064Z,100.00
2022-10-23T10:43:23.907Z,100.00
2022-10-23T10:45:53.708Z,100.00
2022-10-23T10:48:20.293Z,100.00
2022-10-23T10:51:07.706Z,100.00
2022-10-23T10:53:54.128Z,100.00
2022-10-23T10:56:23.497Z,100.00
2022-10-23T10:58:52.523Z,100.00
2022-10-23T11:01:28.683Z,100.00
2022-10-23T11:04:04.310Z,100.00
2022-10-23T11:06:34.481Z,100.00
2022-10-23T11:09:19.850Z,100.00
2022-10-23T11:11:48.759Z,99.66
2022-10-23T11:14:21.935Z,100.00
2022-10-23T11:17:08.325Z,100.00
2022-10-23T11:19:43.456Z,100.00
2022-10-23T11:22:31.396Z,99.67
2022-10-23T11:25:13.738Z,100.00
2022-10-23T11:28:03.342Z,100.00
2022-10-23T11:30:47.773Z,100.00
2022-10-23T11:33:33.208Z,100.00
2022-10-23T11:36:13.617Z,97.94
2022-10-23T11:38:41.432Z,91.14
2022-10-23T11:41:19.830Z,96.32
2022-10-23T11:43:56.907Z,96.70
2022-10-23T11:46:26.488Z,95.50
2022-10-23T11:48:54.350Z,95.89
2022-10-23T11:51:34.485Z,94.55
2022-10-23T11:54:16.470Z,93.63
2022-10-23T11:56:52.231Z,91.39
2022-10-23T11:59:25.513Z,85.28
2022-10-23T12:01:52.608Z,83.66
2022-10-23T12:04:25.044Z,83.25
2022-10-23T12:06:59.921Z,80.72
2022-10-23T12:09:29.325Z,83.17
2022-10-23T12:12:08.067Z,84.95
2022-10-23T12:14:39.243Z,88.68
2022-10-23T12:17:22.169Z,92.28
2022-10-23T12:19:54.675Z,93.42
2022-10-23T12:22:25.326Z,95.03
2022-10-23T12:24:56.827Z,97.35
2022-10-23T12:27:35.677Z,98.95
2022-10-23T12:30:02.206Z,96.40
2022-10-23T12:32:38.452Z,97.33
2022-10-23T12:35:20.519Z,94.94
2022-10-23T12:38:00.514Z,89.73
2022-10-23T12:40:29.739Z,83.96
2022-10-23T12:42:58.762Z,83.34
2022-10-23T12:45:32.020Z,82.87
2022-10-23T12:47:59.706Z,81.25
2022-10-23T12:50:27.739Z,80.54
2022-10-23T12:53:00.531Z,78.59
2022-10-23T12:55:33.529Z,79.41
2022-10-23T12:58:04.279Z,78.64
2022-10-23T13:00:31.190Z,79.48
2022-10-23T13:03:00.089Z,80.54
2022-10-23T13:05:27.639Z,80.58
2022-10-23T13:07:57.371Z,79.23
2022-10-23T13:10:34.245Z,80.24
2022-10-23T13:13:05.526Z,81.13
2022-10-23T13:15:39.585Z,82.50
2022-10-23T13:18:06.723Z,83.53
2022-10-23T13:20:34.729Z,83.52
2022-10-23T13:23:09.153Z,77.28
2022-10-23T13:25:40.178Z,74.34
2022-10-23T13:28:25.556Z,72.16
2022-10-23T13:31:03.342Z,69.41
2022-10-23T13:33:41.375Z,66.73
2022-10-23T13:36:08.417Z,64.73
2022-10-23T13:38:36.051Z,65.44
2022-10-23T13:41:04.481Z,63.58
2022-10-23T13:43:32.412Z,64.17
2022-10-23T13:46:00.446Z,62.67
2022-10-23T13:48:27.172Z,63.63
2022-10-23T13:50:53.957Z,63.35
2022-10-23T13:53:21.658Z,60.47
2022-10-23T13:55:52.532Z,58.81
2022-10-23T13:58:21.494Z,60.75
2022-10-23T14:00:49.169Z,59.46
2022-10-23T14:03:16.701Z,59.35
2022-10-23T14:05:43.504Z,57.49
2022-10-23T14:08:10.267Z,58.26
2022-10-23T14:10:37.398Z,58.03
2022-10-23T14:13:04.123Z,55.80
2022-10-23T14:15:30.687Z,57.49
2022-10-23T14:17:59.472Z,56.91
2022-10-23T14:20:28.238Z,57.28
2022-10-23T14:22:54.814Z,57.21
2022-10-23T14:25:23.661Z,57.24
2022-10-23T14:27:50.365Z,58.02
2022-10-23T14:30:16.959Z,57.24
2022-10-23T14:32:44.713Z,57.65
2022-10-23T14:35:12.569Z,57.76
2022-10-23T14:37:39.131Z,57.85
2022-10-23T14:40:06.037Z,58.52
2022-10-23T14:42:33.977Z,59.22
2022-10-23T14:45:01.828Z,59.24
2022-10-23T14:47:29.154Z,58.98
2022-10-23T14:49:56.135Z,59.72
2022-10-23T14:52:22.991Z,59.83
2022-10-23T14:54:53.197Z,60.62
2022-10-23T14:57:21.373Z,62.28
2022-10-23T14:59:48.585Z,63.53
2022-10-23T15:02:16.090Z,64.81
2022-10-23T15:04:42.742Z,66.09
2022-10-23T15:07:09.366Z,67.81
2022-10-23T15:09:36.102Z,68.92
2022-10-23T15:12:03.650Z,70.52
2022-10-23T15:14:30.912Z,72.68
2022-10-23T15:16:57.452Z,75.68
2022-10-23T15:19:25.104Z,79.34
2022-10-23T15:21:51.975Z,82.15
2022-10-23T15:24:20.326Z,81.89
2022-10-23T15:26:47.922Z,85.94
2022-10-23T15:29:15.269Z,87.47
2022-10-23T15:31:43.456Z,93.80
2022-10-23T15:34:12.415Z,96.36
2022-10-23T15:36:39.093Z,99.09
2022-10-23T15:39:08.006Z,100.00
2022-10-23T15:41:37.144Z,100.00
2022-10-23T15:44:05.059Z,100.00
2022-10-23T15:46:32.285Z,100.00
2022-10-23T15:48:58.996Z,100.00
2022-10-23T15:51:25.640Z,100.00
2022-10-23T15:53:52.273Z,100.00
2022-10-23T15:56:18.812Z,100.00
2022-10-23T15:58:45.667Z,100.00
2022-10-23T16:01:12.298Z,100.00
2022-10-23T16:03:39.144Z,100.00
2022-10-23T16:06:07.052Z,100.00
2022-10-23T16:08:33.805Z,100.00
2022-10-23T16:11:00.535Z,100.00
2022-10-23T16:13:27.331Z,100.00
2022-10-23T16:15:54.425Z,100.00
2022-10-23T16:18:21.672Z,100.00
2022-10-23T16:20:50.474Z,100.00
2022-10-23T16:23:17.234Z,100.00
2022-10-23T16:25:45.931Z,100.00
2022-10-23T16:28:12.949Z,100.00
2022-10-23T16:30:40.598Z,100.00
2022-10-23T16:33:07.454Z,100.00
2022-10-23T16:35:34.141Z,100.00
2022-10-23T16:38:05.994Z,100.00
2022-10-23T16:40:32.456Z,100.00
2022-10-23T16:43:17.860Z,100.00
2022-10-23T16:46:19.844Z,100.00
2022-10-23T16:48:47.206Z,100.00
2022-10-23T16:51:15.218Z,100.00
2022-10-23T16:53:42.393Z,100.00
2022-10-23T16:56:12.757Z,100.00
2022-10-23T16:58:46.071Z,100.00
2022-10-23T17:01:45.065Z,100.00
2022-10-23T17:04:13.420Z,100.00
2022-10-23T17:06:46.038Z,100.00
2022-10-23T17:12:06.619Z,100.00
2022-10-23T17:14:55.665Z,100.00
2022-10-23T17:17:28.361Z,100.00
2022-10-23T17:19:57.666Z,100.00
2022-10-23T17:22:30.485Z,100.00
2022-10-23T17:24:57.957Z,100.00
2022-10-23T17:27:29.720Z,100.00
2022-10-23T17:29:57.683Z,100.00
2022-10-23T17:32:24.529Z,100.00
2022-10-23T17:35:10.705Z,100.00
2022-10-23T17:38:01.130Z,100.00
2022-10-23T17:40:34.876Z,100.00
2022-10-23T17:43:14.221Z,100.00
2022-10-23T17:45:51.373Z,100.00
2022-10-23T17:48:47.434Z,100.00
2022-10-23T17:51:18.200Z,100.00
2022-10-23T17:53:59.347Z,100.00
2022-10-23T17:56:28.559Z,100.00
2022-10-23T17:59:03.260Z,100.00
2022-10-23T18:01:48.051Z,100.00
2022-10-23T18:04:25.513Z,100.00
2022-10-23T18:07:01.942Z,100.00
2022-10-23T18:09:37.186Z,100.00
2022-10-23T18:12:11.053Z,100.00
2022-10-23T18:14:40.696Z,100.00
2022-10-23T18:17:12.146Z,100.00
2022-10-23T18:20:01.691Z,100.00
2022-10-23T18:22:55.582Z,100.00
2022-10-23T18:25:26.181Z,100.00
2022-10-23T18:27:54.277Z,100.00
2022-10-23T18:30:29.675Z,100.00
2022-10-23T18:32:57.626Z,100.00
2022-10-23T18:35:34.279Z,100.00
2022-10-23T18:38:03.391Z,100.00
2022-10-23T18:40:34.079Z,100.00
2022-10-23T18:43:00.637Z,100.00
2022-10-23T18:45:28.434Z,100.00
2022-10-23T18:47:59.417Z,100.00
2022-10-23T18:50:29.271Z,100.00
2022-10-23T18:55:54.110Z,100.00
2022-10-23T18:58:38.141Z,100.00
2022-10-23T19:01:42.550Z,100.00
2022-10-23T19:04:12.065Z,100.00
2022-10-23T19:06:44.306Z,100.00
2022-10-23T19:09:25.206Z,100.00
2022-10-23T19:12:28.711Z,100.00
2022-10-23T19:15:01.927Z,100.00
2022-10-23T19:17:40.125Z,100.00
2022-10-23T19:20:11.712Z,100.00
2022-10-23T19:22:42.480Z,100.00
2022-10-23T19:25:14.813Z,100.00
2022-10-23T19:27:50.640Z,100.00
2022-10-23T19:30:25.061Z,100.00
2022-10-23T19:32:54.394Z,100.00
2022-10-23T19:35:25.349Z,100.00
2022-10-23T19:38:04.434Z,100.00
2022-10-23T19:40:35.364Z,100.00
2022-10-23T19:43:04.606Z,100.00
2022-10-23T19:45:40.838Z,100.00
2022-10-23T19:48:14.215Z,100.00
2022-10-23T19:51:01.722Z,100.00
2022-10-23T19:53:31.604Z,100.00
2022-10-23T19:56:05.529Z,100.00
2022-10-23T19:58:39.593Z,100.00
2022-10-23T20:01:17.198Z,100.00
2022-10-23T20:03:50.701Z,100.00
2022-10-23T20:06:19.109Z,100.00
2022-10-23T20:09:00.986Z,100.00
2022-10-23T20:11:29.259Z,100.00
2022-10-23T20:14:08.116Z,100.00
2022-10-23T20:17:07.089Z,100.00
2022-10-23T20:19:31.170Z,100.00
2022-10-23T20:22:07.508Z,100.00
2022-10-23T20:24:36.908Z,100.00
2022-10-23T20:27:06.115Z,100.00
2022-10-23T20:29:43.684Z,100.00
2022-10-23T20:32:18.470Z,100.00
2022-10-23T20:35:00.097Z,100.00
2022-10-23T20:37:26.776Z,100.00
2022-10-23T20:39:56.737Z,100.00
2022-10-23T20:42:25.261Z,100.00
2022-10-23T20:44:58.069Z,100.00
2022-10-23T20:47:27.798Z,100.00
2022-10-23T20:50:00.086Z,100.00
2022-10-23T20:52:30.137Z,100.00
2022-10-23T20:54:59.232Z,100.00
2022-10-23T20:57:31.196Z,100.00
2022-10-23T21:00:09.722Z,100.00
2022-10-23T21:02:38.578Z,100.00
2022-10-23T21:05:11.799Z,100.00
2022-10-23T21:07:41.980Z,100.00
2022-10-23T21:10:14.021Z,100.00
2022-10-23T21:12:42.249Z,100.00
2022-10-23T21:15:15.142Z,100.00
2022-10-23T21:17:42.250Z,100.00
2022-10-23T21:20:09.537Z,100.00
2022-10-23T21:22:38.947Z,100.00
2022-10-23T21:25:09.743Z,100.00
2022-10-23T21:27:39.646Z,100.00
2022-10-23T21:30:11.620Z,100.00
2022-10-23T21:32:40.048Z,100.00
2022-10-23T21:35:09.569Z,100.00
2022-10-23T21:37:36.150Z,100.00
2022-10-23T21:40:04.066Z,100.00
2022-10-23T21:42:39.892Z,100.00
2022-10-23T21:45:10.352Z,100.00
2022-10-23T21:47:46.048Z,100.00
2022-10-23T21:50:31.012Z,100.00
2022-10-23T21:52:59.926Z,100.00
2022-10-23T21:55:33.257Z,100.00
2022-10-23T21:58:09.928Z,100.00
2022-10-23T22:00:52.192Z,100.00
2022-10-23T22:03:19.274Z,100.00
2022-10-23T22:05:53.070Z,100.00
2022-10-23T22:08:19.629Z,100.00
2022-10-23T22:10:47.192Z,100.00
2022-10-23T22:13:20.829Z,100.00
2022-10-23T22:15:47.323Z,100.00
2022-10-23T22:18:14.247Z,100.00
2022-10-23T22:20:46.790Z,100.00
2022-10-23T22:23:13.415Z,100.00
2022-10-23T22:25:40.230Z,100.00
2022-10-23T22:28:10.069Z,100.00
2022-10-23T22:30:39.862Z,100.00
2022-10-23T22:33:06.509Z,100.00
2022-10-23T22:35:35.992Z,100.00
2022-10-23T22:38:07.501Z,100.00
2022-10-23T22:40:45.649Z,100.00
2022-10-23T22:43:30.379Z,100.00
2022-10-23T22:46:08.543Z,100.00
2022-10-23T22:48:38.782Z,100.00
2022-10-23T22:51:25.570Z,100.00
2022-10-23T22:54:07.213Z,100.00
2022-10-23T22:56:43.269Z,100.00
2022-10-23T22:59:12.753Z,100.00
2022-10-23T23:01:50.157Z,100.00
2022-10-23T23:04:37.187Z,100.00
2022-10-23T23:07:06.735Z,100.00
2022-10-23T23:09:40.062Z,100.00
2022-10-23T23:12:14.383Z,100.00
2022-10-23T23:14:42.935Z,100.00
2022-10-23T23:17:11.938Z,100.00
2022-10-23T23:19:38.685Z,100.00
2022-10-23T23:22:11.105Z,100.00
2022-10-23T23:24:38.425Z,100.00
2022-10-23T23:27:05.347Z,100.00
2022-10-23T23:29:39.207Z,100.00
2022-10-23T23:32:15.108Z,100.00
2022-10-23T23:34:48.597Z,100.00
2022-10-23T23:37:22.402Z,100.00
2022-10-23T23:39:50.894Z,100.00
2022-10-23T23:42:26.455Z,100.00
2022-10-23T23:45:02.712Z,100.00
2022-10-23T23:47:37.590Z,100.00
2022-10-23T23:50:08.410Z,100.00
2022-10-23T23:52:42.713Z,100.00
2022-10-23T23:55:09.373Z,100.00
2022-10-23T23:57:36.198Z,100.00
